Yuukimaru No.8 — JD2477 — position and weather

sailwx.info

Track history (hours):
 
Tides and Currents Weather Stations Pressure Air Temp Water Temp Dewpoint Dewpoint Depression Visibility Wind Speed Wind Dir Waves Ship Positions

Yuukimaru No.8

Last reported at 2017-Nov-06 02:30 UTC. Time now 2017-Nov-19 06:32 UTC.
Position N 35°21' E 139°54'.
Warning: this ship's position is 13 days out of date.

Length 75 m; draft 4.7 m.

Type: Ship (hazmat cat D). MMSI: 431000298.

Date/timePositionNaut miles runAvg speedWind from/ knotsBaromVisibWave heightAir tempDewpointWater temp
2017-Nov-06 02:30N 35°21' E 139°54'  
2017-Nov-03 20:54N 35°21' E 139°54'0 0.0
2017-Nov-03 20:20N 35°21' E 139°54'0 0.0
2017-Nov-03 20:00N 35°21' E 139°54'0 0.0
2017-Nov-03 19:02N 35°21' E 139°54'0 0.0
2017-Nov-03 18:59N 35°21' E 139°54'0 0.0
2017-Nov-03 18:29N 35°21' E 139°54'0 0.0
2017-Nov-03 18:00N 35°21' E 139°54'0 0.0
2017-Nov-03 17:30N 35°21' E 139°54'0 0.0
2017-Nov-03 17:00N 35°21' E 139°54'0 0.0
2017-Nov-03 16:29N 35°21' E 139°54'0 0.0
2017-Nov-03 15:57N 35°21' E 139°54'0 0.0
2017-Nov-03 15:30N 35°21' E 139°54'0 0.0
2017-Nov-03 14:57N 35°21' E 139°54'0 0.0
2017-Nov-03 14:25N 35°21' E 139°54'0 0.0
2017-Nov-03 14:00N 35°21' E 139°54'0 0.0
2017-Nov-03 13:30N 35°21' E 139°54'0 0.0
2017-Nov-03 13:00N 35°21' E 139°54'0 0.0
2017-Nov-03 12:30N 35°21' E 139°54'0 0.0
2017-Nov-03 12:00N 35°21' E 139°54'0 0.0
2017-Nov-03 11:30N 35°21' E 139°54'0 0.0
2017-Nov-03 11:00N 35°21' E 139°54'0 0.0
2017-Nov-03 10:29N 35°21' E 139°54'0 0.0
2017-Nov-03 09:56N 35°21' E 139°54'0 0.0
2017-Nov-03 09:27N 35°21' E 139°54'0 0.0
2017-Nov-03 08:53N 35°21' E 139°54'0 0.0
2017-Nov-03 08:30N 35°21' E 139°54'0 0.0
2017-Nov-03 08:00N 35°21' E 139°54'0 0.0
2017-Nov-03 07:24N 35°21' E 139°54'0 0.0
2017-Nov-03 07:00N 35°21' E 139°54'0 0.0
2017-Nov-03 06:29N 35°21' E 139°54'0 0.0
2017-Nov-03 05:57N 35°21' E 139°54'0 0.0
2017-Nov-03 05:29N 35°21' E 139°54'0 0.0
2017-Nov-03 04:59N 35°21' E 139°54'0 0.0
2017-Nov-03 04:29N 35°21' E 139°54'0 0.0
2017-Nov-03 04:00N 35°21' E 139°54'0 0.0
2017-Nov-03 03:30N 35°21' E 139°54'3 5.6
2017-Nov-03 02:59N 35°23' E 139°51'1 0.5
2017-Nov-03 00:54N 35°24' E 139°50'0 0.0
2017-Nov-02 23:12N 35°24' E 139°50'0 0.0
2017-Nov-02 22:43N 35°24' E 139°50'0 0.0
2017-Nov-02 22:24N 35°24' E 139°50'0 0.0
2017-Nov-02 21:56N 35°24' E 139°50'0 0.0
2017-Nov-02 21:30N 35°24' E 139°50'0 0.0
2017-Nov-02 20:56N 35°24' E 139°50'0 0.0
2017-Nov-02 20:30N 35°24' E 139°50'0 0.0
2017-Nov-02 20:00N 35°24' E 139°50'0 0.0
2017-Nov-02 19:30N 35°24' E 139°50'0 0.0
2017-Nov-02 19:00N 35°24' E 139°50'0 0.0
2017-Nov-02 18:30N 35°24' E 139°50'0 0.0
2017-Nov-02 16:39N 35°24' E 139°50'0 0.1
2017-Nov-02 16:13N 35°24' E 139°50'1 6.5
2017-Nov-02 16:00N 35°23' E 139°48'510.3
2017-Nov-02 15:30N 35°19' E 139°44'510.7
2017-Nov-02 15:00N 35°14' E 139°47'510.8
2017-Nov-02 14:30N 35°09' E 139°46'5 9.8
2017-Nov-02 14:00N 35°05' E 139°42'510.4
2017-Nov-02 13:30N 35°01' E 139°38'611.2
2017-Nov-02 13:00N 34°58' E 139°33'611.8
2017-Nov-02 12:28N 34°54' E 139°26'40 6.0
2017-Nov-02 05:51N 35°09' E 138°41'0 0.0
2017-Nov-02 04:20N 35°09' E 138°41'0 0.0
2017-Nov-02 03:57N 35°09' E 138°41'0 0.0
2017-Nov-02 03:29N 35°09' E 138°41'59 2.0
2017-Oct-31 22:15N 35°23' E 139°51'1 5.9
2017-Oct-31 22:00N 35°22' E 139°52'1 0.1
2017-Oct-31 04:15N 35°23' E 139°51'1 1.0
2017-Oct-31 03:08N 35°24' E 139°51'0 0.0
2017-Oct-31 02:26N 35°24' E 139°51'0 0.0
2017-Oct-31 01:49N 35°24' E 139°51'0 0.0
2017-Oct-31 01:29N 35°24' E 139°51'0 0.0
2017-Oct-31 00:38N 35°24' E 139°51'0 0.0
2017-Oct-30 22:44N 35°24' E 139°51'0 0.0
2017-Oct-30 22:20N 35°24' E 139°51'0 0.0
2017-Oct-30 21:59N 35°24' E 139°51'0 0.0
2017-Oct-30 21:26N 35°24' E 139°51'0 0.0
2017-Oct-30 21:00N 35°24' E 139°51'0 0.1
2017-Oct-30 20:30N 35°24' E 139°51'0 0.3
2017-Oct-30 20:00N 35°24' E 139°51'611.6
2017-Oct-30 19:30N 35°30' E 139°51'611.3
2017-Oct-30 19:00N 35°35' E 139°50'  
2017-Oct-28 01:25N 35°36' E 139°50'1 0.5
2017-Oct-27 23:03N 35°36' E 139°52'0 1.4
2017-Oct-27 23:00N 35°36' E 139°52'8 0.4
2017-Oct-27 03:32N 35°28' E 139°50'210.0
2017-Oct-27 03:22N 35°27' E 139°48'410.0
2017-Oct-27 03:00N 35°27' E 139°44'4 8.7
2017-Oct-27 02:31N 35°28' E 139°39'  
Track history (hours):
 
Tides and Currents Weather Stations Pressure Air Temp Water Temp Dewpoint Dewpoint Depression Visibility Wind Speed Wind Dir Waves Ship Positions

Yuukimaru No.8

Last reported at 2017-Nov-06 02:30 UTC. Time now 2017-Nov-19 06:32 UTC.
Position N 35°21' E 139°54'.
Warning: this ship's position is 13 days out of date.

Length 75 m; draft 4.7 m.

Type: Ship (hazmat cat D). MMSI: 431000298.

Date/timePositionNaut miles runAvg speedWind from/ knotsBaromVisibWave heightAir tempDewpointWater temp
2017-Nov-06 02:30N 35°21' E 139°54'  
2017-Nov-03 20:54N 35°21' E 139°54'0 0.0
2017-Nov-03 20:20N 35°21' E 139°54'0 0.0
2017-Nov-03 20:00N 35°21' E 139°54'0 0.0
2017-Nov-03 19:02N 35°21' E 139°54'0 0.0
2017-Nov-03 18:59N 35°21' E 139°54'0 0.0
2017-Nov-03 18:29N 35°21' E 139°54'0 0.0
2017-Nov-03 18:00N 35°21' E 139°54'0 0.0
2017-Nov-03 17:30N 35°21' E 139°54'0 0.0
2017-Nov-03 17:00N 35°21' E 139°54'0 0.0
2017-Nov-03 16:29N 35°21' E 139°54'0 0.0
2017-Nov-03 15:57N 35°21' E 139°54'0 0.0
2017-Nov-03 15:30N 35°21' E 139°54'0 0.0
2017-Nov-03 14:57N 35°21' E 139°54'0 0.0
2017-Nov-03 14:25N 35°21' E 139°54'0 0.0
2017-Nov-03 14:00N 35°21' E 139°54'0 0.0
2017-Nov-03 13:30N 35°21' E 139°54'0 0.0
2017-Nov-03 13:00N 35°21' E 139°54'0 0.0
2017-Nov-03 12:30N 35°21' E 139°54'0 0.0
2017-Nov-03 12:00N 35°21' E 139°54'0 0.0
2017-Nov-03 11:30N 35°21' E 139°54'0 0.0
2017-Nov-03 11:00N 35°21' E 139°54'0 0.0
2017-Nov-03 10:29N 35°21' E 139°54'0 0.0
2017-Nov-03 09:56N 35°21' E 139°54'0 0.0
2017-Nov-03 09:27N 35°21' E 139°54'0 0.0
2017-Nov-03 08:53N 35°21' E 139°54'0 0.0
2017-Nov-03 08:30N 35°21' E 139°54'0 0.0
2017-Nov-03 08:00N 35°21' E 139°54'0 0.0
2017-Nov-03 07:24N 35°21' E 139°54'0 0.0
2017-Nov-03 07:00N 35°21' E 139°54'0 0.0
2017-Nov-03 06:29N 35°21' E 139°54'0 0.0
2017-Nov-03 05:57N 35°21' E 139°54'0 0.0
2017-Nov-03 05:29N 35°21' E 139°54'0 0.0
2017-Nov-03 04:59N 35°21' E 139°54'0 0.0
2017-Nov-03 04:29N 35°21' E 139°54'0 0.0
2017-Nov-03 04:00N 35°21' E 139°54'0 0.0
2017-Nov-03 03:30N 35°21' E 139°54'3 5.6
2017-Nov-03 02:59N 35°23' E 139°51'1 0.5
2017-Nov-03 00:54N 35°24' E 139°50'0 0.0
2017-Nov-02 23:12N 35°24' E 139°50'0 0.0
2017-Nov-02 22:43N 35°24' E 139°50'0 0.0
2017-Nov-02 22:24N 35°24' E 139°50'0 0.0
2017-Nov-02 21:56N 35°24' E 139°50'0 0.0
2017-Nov-02 21:30N 35°24' E 139°50'0 0.0
2017-Nov-02 20:56N 35°24' E 139°50'0 0.0
2017-Nov-02 20:30N 35°24' E 139°50'0 0.0
2017-Nov-02 20:00N 35°24' E 139°50'0 0.0
2017-Nov-02 19:30N 35°24' E 139°50'0 0.0
2017-Nov-02 19:00N 35°24' E 139°50'0 0.0
2017-Nov-02 18:30N 35°24' E 139°50'0 0.0
2017-Nov-02 16:39N 35°24' E 139°50'0 0.1
2017-Nov-02 16:13N 35°24' E 139°50'1 6.5
2017-Nov-02 16:00N 35°23' E 139°48'510.3
2017-Nov-02 15:30N 35°19' E 139°44'510.7
2017-Nov-02 15:00N 35°14' E 139°47'510.8
2017-Nov-02 14:30N 35°09' E 139°46'5 9.8
2017-Nov-02 14:00N 35°05' E 139°42'510.4
2017-Nov-02 13:30N 35°01' E 139°38'611.2
2017-Nov-02 13:00N 34°58' E 139°33'611.8
2017-Nov-02 12:28N 34°54' E 139°26'40 6.0
2017-Nov-02 05:51N 35°09' E 138°41'0 0.0
2017-Nov-02 04:20N 35°09' E 138°41'0 0.0
2017-Nov-02 03:57N 35°09' E 138°41'0 0.0
2017-Nov-02 03:29N 35°09' E 138°41'59 2.0
2017-Oct-31 22:15N 35°23' E 139°51'1 5.9
2017-Oct-31 22:00N 35°22' E 139°52'1 0.1
2017-Oct-31 04:15N 35°23' E 139°51'1 1.0
2017-Oct-31 03:08N 35°24' E 139°51'0 0.0
2017-Oct-31 02:26N 35°24' E 139°51'0 0.0
2017-Oct-31 01:49N 35°24' E 139°51'0 0.0
2017-Oct-31 01:29N 35°24' E 139°51'0 0.0
2017-Oct-31 00:38N 35°24' E 139°51'0 0.0
2017-Oct-30 22:44N 35°24' E 139°51'0 0.0
2017-Oct-30 22:20N 35°24' E 139°51'0 0.0
2017-Oct-30 21:59N 35°24' E 139°51'0 0.0
2017-Oct-30 21:26N 35°24' E 139°51'0 0.0
2017-Oct-30 21:00N 35°24' E 139°51'0 0.1
2017-Oct-30 20:30N 35°24' E 139°51'0 0.3
2017-Oct-30 20:00N 35°24' E 139°51'611.6
2017-Oct-30 19:30N 35°30' E 139°51'611.3
2017-Oct-30 19:00N 35°35' E 139°50'  
2017-Oct-28 01:25N 35°36' E 139°50'1 0.5
2017-Oct-27 23:03N 35°36' E 139°52'0 1.4
2017-Oct-27 23:00N 35°36' E 139°52'8 0.4
2017-Oct-27 03:32N 35°28' E 139°50'210.0
2017-Oct-27 03:22N 35°27' E 139°48'410.0
2017-Oct-27 03:00N 35°27' E 139°44'4 8.7
2017-Oct-27 02:31N 35°28' E 139°39'  

Dump ship's entire track history